Latest Weather Observations for Groote Eylandt Airport

IDD60801

Issued at 2:01 pm CST Friday 30 January 2015 (issued every 30 minutes, with the page automatically refreshed every 10 minutes)

About weather observations | Map of weather stations | Latest weather observations for NT | Other Formats
Station Details ID: 014518 Name: GROOTE EYLANDT AIRPORT Lat: -13.97 Lon: 136.46 Height: 13.7 m
Data from the previous 72 hours. | See also: Recent months at Groote Eylandt Airport
Date/Time
CST
Temp
°C
App
Temp
°C
Dew
Point
Rel
Hum
%
Delta-T
°C
Wind Press
QNH
hPa
Press
MSL
hPa
Rain
since 9 am
mm
Dir
 
Spd
km/h
Gust
km/h
Spd
kts
Gust
kts
30/02:00pm 34.9 35.6 18.9 39 10.5 W 13 19 7 10 1004.8 1004.7 0.0
30/01:30pm 34.8 37.2 21.5 46 9.1 WSW 11 17 6 9 1005.2 1005.1 0.0
30/01:00pm 34.9 37.5 21.9 46 8.9 WSW 11 17 6 9 1005.5 1005.4 0.0
30/12:30pm 33.7 36.2 21.8 49 8.1 WSW 11 17 6 9 1005.7 1005.6 0.0
30/12:00pm 33.5 36.5 22.6 53 7.5 W 11 17 6 9 1006.0 1005.9 0.0
30/11:30am 32.8 36.2 24.0 60 6.2 W 13 19 7 10 1006.4 1006.3 0.0
30/11:00am 32.5 36.4 24.3 62 5.7 WNW 11 17 6 9 1006.7 1006.6 0.0
30/10:30am 31.7 35.7 25.1 68 4.7 W 13 20 7 11 1006.9 1006.8 0.0
30/10:00am 31.6 35.7 25.2 69 4.5 W 13 20 7 11 1007.0 1006.9 0.0
30/09:30am 31.1 34.5 24.7 68 4.5 WNW 15 24 8 13 1007.0 1006.9 0.0
30/09:00am 30.6 34.3 25.2 73 3.8 W 15 22 8 12 1006.9 1006.8 0.0
30/08:30am 30.7 33.8 24.8 71 4.1 WNW 17 24 9 13 1006.8 1006.7 0.0
30/08:00am 29.8 34.4 25.3 77 3.2 NW 11 19 6 10 1006.7 1006.6 0.0
30/07:30am 29.3 33.2 24.8 77 3.2 NW 13 17 7 9 1006.7 1006.6 0.0
30/07:00am 28.7 33.9 25.1 81 2.5 WNW 7 11 4 6 1006.5 1006.4 0.0
30/06:30am 28.1 32.9 25.1 84 2.1 W 9 15 5 8 1006.2 1006.1 0.0
30/06:00am 26.0 32.1 25.7 98 0.2 NNW 4 9 2 5 1006.0 1005.9 0.0
30/05:30am 25.9 32.6 25.4 97 0.4 CALM 0 0 0 0 1005.7 1005.6 0.0
30/05:00am 26.1 32.9 25.6 97 0.4 CALM 0 0 0 0 1005.5 1005.4 0.0
30/04:30am 26.1 32.9 25.6 97 0.4 CALM 0 0 0 0 1005.1 1005.0 0.0
30/04:00am 25.9 32.6 25.4 97 0.4 CALM 0 0 0 0 1005.0 1004.9 0.0
30/03:30am 25.8 32.4 25.3 97 0.4 CALM 0 0 0 0 1005.1 1005.0 0.0
30/03:00am 25.8 32.4 25.3 97 0.4 CALM 0 0 0 0 1005.0 1004.9 0.0
30/02:30am 25.6 32.0 24.9 96 0.5 CALM 0 0 0 0 1005.1 1005.0 0.0
30/02:00am 25.7 32.2 25.0 96 0.5 CALM 0 0 0 0 1005.4 1005.3 0.0
30/01:30am 25.5 31.8 24.8 96 0.5 CALM 0 0 0 0 1005.7 1005.6 0.0
30/01:00am 25.6 31.8 24.6 94 0.7 CALM 0 0 0 0 1006.0 1005.9 0.0
30/12:30am 26.0 31.1 24.6 92 1.0 ESE 6 7 3 4 1006.3 1006.2 0.0
30/12:00am 26.3 32.8 25.1 93 0.8 CALM 0 0 0 0 1006.6 1006.5 0.0
 
Date/Time
CST
Temp
°C
App
Temp
°C
Dew
Point
Rel
Hum
%
Delta-T
°C
Wind Press
QNH
hPa
Press
MSL
hPa
Rain
since 9 am
mm
Dir
 
Spd
km/h
Gust
km/h
Spd
kts
Gust
kts
29/11:30pm 26.6 32.8 24.6 89 1.4 CALM 0 0 0 0 1006.8 1006.7 0.0
29/11:00pm 26.9 33.0 24.5 87 1.7 CALM 0 0 0 0 1007.0 1006.9 0.0
29/10:30pm 27.4 33.7 24.7 85 1.9 CALM 0 0 0 0 1006.9 1006.8 0.0
29/10:00pm 27.8 33.9 24.4 82 2.4 CALM 0 0 0 0 1006.6 1006.5 0.0
29/09:30pm 28.8 34.0 24.8 79 2.8 ENE 6 7 3 4 1006.4 1006.3 0.0
29/09:00pm 29.3 34.4 24.6 76 3.3 NE 6 7 3 4 1006.2 1006.1 0.0
29/08:30pm 29.6 34.4 24.5 74 3.6 NE 7 11 4 6 1006.0 1005.9 0.0
29/08:00pm 29.9 34.9 24.8 74 3.6 ENE 7 11 4 6 1005.6 1005.5 0.0
29/07:30pm 30.1 34.4 23.3 67 4.7 E 6 9 3 5 1005.2 1005.1 0.0
29/07:00pm 31.2 35.7 23.6 64 5.3 S 6 6 3 3 1004.8 1004.7 0.0
29/06:30pm 33.2 37.2 22.0 51 7.7 S 4 6 2 3 1004.5 1004.4 0.0
29/06:00pm 33.3 36.8 21.8 51 7.8 S 6 9 3 5 1004.4 1004.3 0.0
29/05:30pm 33.4 36.7 21.9 51 7.9 S 7 11 4 6 1004.0 1003.9 0.0
29/05:00pm 33.2 36.2 22.0 51 7.6 SW 9 13 5 7 1003.8 1003.7 0.0
29/04:30pm 33.2 36.4 22.3 52 7.5 SW 9 17 5 9 1003.5 1003.4 0.0
29/04:00pm 33.2 36.4 21.7 51 7.8 SW 7 17 4 9 1003.8 1003.7 0.0
29/03:30pm 33.3 36.5 22.4 52 7.5 SSW 9 13 5 7 1003.8 1003.7 0.0
29/03:00pm 32.5 34.2 21.0 50 7.7 W 13 20 7 11 1003.8 1003.7 0.0
29/02:30pm 32.8 34.8 21.6 51 7.6 W 13 20 7 11 1004.1 1004.0 0.0
29/02:00pm 32.8 34.8 21.6 51 7.6 W 13 20 7 11 1004.2 1004.1 0.0
29/01:30pm 32.6 35.0 21.5 52 7.5 WSW 11 19 6 10 1004.6 1004.5 0.0
29/01:00pm 32.2 35.0 22.3 56 6.8 SW 11 15 6 8 1005.2 1005.1 0.0
29/12:30pm 31.5 34.1 21.9 56 6.5 SSW 11 17 6 9 1005.6 1005.5 0.0
29/12:00pm 31.0 34.1 23.6 64 5.1 WSW 13 20 7 11 1006.1 1006.0 0.0
29/11:30am 30.6 33.7 23.5 66 4.9 SW 13 22 7 12 1006.4 1006.3 0.0
29/11:00am 30.5 33.6 24.2 69 4.4 WSW 15 26 8 14 1006.7 1006.6 0.0
29/10:30am 30.4 34.3 24.8 72 3.9 WSW 13 24 7 13 1006.8 1006.7 0.0
29/10:00am 30.3 33.3 24.0 69 4.4 W 15 24 8 13 1006.7 1006.6 0.0
29/09:30am 30.5 34.1 23.7 67 4.7 WSW 11 19 6 10 1006.7 1006.6 0.0
29/09:00am 29.8 32.5 23.5 69 4.4 WSW 15 24 8 13 1006.3 1006.2 0.0
29/08:30am 29.5 33.3 24.1 72 3.8 WSW 11 19 6 10 1006.1 1006.0 0.0
29/08:00am 29.1 32.5 24.0 74 3.5 WSW 13 20 7 11 1005.9 1005.8 0.0
29/07:30am 28.4 32.5 24.0 77 3.0 WSW 9 15 5 8 1005.5 1005.4 0.0
29/07:00am 27.7 31.9 24.1 81 2.5 WSW 9 13 5 7 1004.9 1004.8 0.0
29/06:30am 27.0 31.5 24.6 87 1.7 WSW 9 13 5 7 1004.6 1004.5 0.0
29/06:00am 26.0 31.6 25.8 99 0.1 W 7 13 4 7 1004.1 1004.0 0.0
29/05:30am 24.5 30.5 24.3 99 0.1 CALM 0 0 0 0 1004.1 1004.0 0.0
29/05:00am 24.6 30.7 24.4 99 0.1 CALM 0 0 0 0 1003.5 1003.4 0.0
29/04:30am 24.7 30.8 24.5 99 0.1 CALM 0 0 0 0 1003.2 1003.1 0.0
29/04:00am 24.7 30.8 24.5 99 0.1 CALM 0 0 0 0 1003.2 1003.1 0.0
29/03:30am 25.0 31.3 24.8 99 0.1 CALM 0 0 0 0 1003.3 1003.2 0.0
29/03:00am 24.9 31.2 24.7 99 0.1 CALM 0 0 0 0 1003.3 1003.2 0.0
29/02:30am 25.1 31.4 24.8 98 0.2 CALM 0 0 0 0 1003.6 1003.5 0.0
29/02:00am 25.3 31.8 25.0 98 0.2 CALM 0 0 0 0 1003.9 1003.8 0.0
29/01:30am 25.6 32.2 25.3 98 0.2 CALM 0 0 0 0 1004.5 1004.4 0.0
29/01:00am 25.8 32.6 25.5 98 0.2 CALM 0 0 0 0 1004.7 1004.6 0.0
29/12:30am 25.9 32.1 25.2 96 0.5 E 2 6 1 3 1005.2 1005.1 0.0
29/12:00am 26.0 32.8 25.5 97 0.4 CALM 0 0 0 0 1005.6 1005.5 0.0
 
Date/Time
CST
Temp
°C
App
Temp
°C
Dew
Point
Rel
Hum
%
Delta-T
°C
Wind Press
QNH
hPa
Press
MSL
hPa
Rain
since 9 am
mm
Dir
 
Spd
km/h
Gust
km/h
Spd
kts
Gust
kts
28/11:30pm 26.0 32.8 25.5 97 0.4 CALM 0 0 0 0 1005.8 1005.7 0.0
28/11:00pm 26.1 32.7 25.2 95 0.6 CALM 0 0 0 0 1006.0 1005.9 0.0
28/10:30pm 26.2 32.8 25.2 94 0.7 CALM 0 0 0 0 1005.8 1005.7 0.0
28/10:00pm 26.6 33.1 25.0 91 1.1 CALM 0 0 0 0 1005.5 1005.4 0.0
28/09:30pm 26.6 32.7 24.4 88 1.5 CALM 0 0 0 0 1005.0 1004.9 0.0
28/09:00pm 27.3 32.4 24.6 85 1.9 E 6 7 3 4 1004.7 1004.6 0.0
28/08:30pm 28.0 33.1 24.6 82 2.4 NE 6 7 3 4 1004.4 1004.3 0.0
28/08:00pm 28.3 33.4 24.7 81 2.5 ENE 6 7 3 4 1004.2 1004.1 0.0
28/07:30pm 29.0 34.8 24.6 77 3.1 ESE 2 7 1 4 1004.0 1003.9 0.0
28/07:00pm 29.7 35.2 24.1 72 3.9 SSE 2 9 1 5 1003.7 1003.6 0.0
28/06:30pm 30.4 34.7 23.6 67 4.7 S 7 13 4 7 1003.0 1002.9 0.0
28/06:00pm 31.4 35.0 23.0 61 5.8 SSE 9 17 5 9 1002.5 1002.4 0.0
28/05:30pm 31.1 35.4 23.7 64 5.1 ENE 7 11 4 6 1002.2 1002.1 0.0
28/05:00pm 31.6 35.3 22.3 57 6.3 SSE 6 9 3 5 1001.9 1001.8 0.0
28/04:30pm 30.0 34.3 21.1 59 6.0 CALM 0 4 0 2 1001.7 1001.6 0.0
28/04:00pm 28.3 31.4 21.1 65 4.8 SSE 6 9 3 5 1001.9 1001.8 0.0
28/03:30pm 28.6 29.2 19.5 58 5.9 E 15 20 8 11 1002.4 1002.3 0.0
28/03:03pm 28.0 26.3 19.8 61 5.3 E 28 50 15 27 1002.9 1002.8 0.0
28/03:00pm 28.2 27.6 20.5 63 5.1 E 24 33 13 18 1003.1 1003.0 0.0
28/02:30pm 29.3 29.2 21.5 63 5.2 NNE 24 37 13 20 1003.1 1003.0 0.0
28/02:00pm 32.1 36.5 25.7 69 4.6 WSW 13 24 7 13 1002.4 1002.3 0.0
28/01:30pm 31.9 35.6 25.7 69 4.4 W 17 24 9 13 1002.5 1002.4 0.0
28/01:00pm 32.0 36.9 25.8 69 4.4 WSW 11 17 6 9 1002.8 1002.7 0.0
28/12:30pm 31.4 35.8 25.7 71 4.1 W 13 22 7 12 1003.2 1003.1 0.0
28/12:00pm 31.1 35.7 25.4 71 4.0 WSW 11 17 6 9 1003.5 1003.4 0.0
28/11:30am 31.2 36.6 26.0 74 3.7 WSW 9 15 5 8 1003.8 1003.7 0.0
28/11:00am 31.1 35.7 25.9 74 3.7 W 13 20 7 11 1004.2 1004.1 0.0
28/10:30am 31.1 36.2 26.1 75 3.6 WSW 11 17 6 9 1004.4 1004.3 0.0
28/10:00am 30.6 35.9 25.2 73 3.8 SW 7 13 4 7 1004.4 1004.3 0.0
28/09:30am 30.4 36.0 25.7 76 3.3 SSW 7 13 4 7 1004.5 1004.4 0.0
28/09:00am 30.1 36.7 25.8 78 3.1 SSE 2 6 1 3 1004.4 1004.3 0.2
28/08:30am 28.8 35.9 26.0 85 2.0 CALM 0 6 0 3 1004.3 1004.2 0.2
28/08:00am 27.6 33.9 25.4 88 1.5 ENE 2 6 1 3 1004.4 1004.3 0.2
28/07:30am 26.9 33.7 25.5 92 1.0 CALM 0 0 0 0 1004.2 1004.1 0.2
28/07:00am 26.4 33.2 25.5 95 0.6 CALM 0 7 0 4 1004.2 1004.1 0.2
28/06:30am 26.1 32.3 25.2 95 0.6 E 2 7 1 4 1004.1 1004.0 0.2
28/06:00am 26.2 32.8 25.3 95 0.6 CALM 0 0 0 0 1003.9 1003.8 0.2
28/05:30am 26.1 31.3 25.1 94 0.7 SSW 7 9 4 5 1003.2 1003.1 0.2
28/05:00am 25.7 30.8 25.0 96 0.5 SSW 7 11 4 6 1003.0 1002.9 0.2
28/04:30am 25.9 31.2 24.9 94 0.7 E 6 7 3 4 1002.7 1002.6 0.2
28/04:00am 26.5 31.6 24.7 90 1.3 NE 6 7 3 4 1002.7 1002.6 0.2
28/03:30am 26.4 31.0 24.8 91 1.1 NNE 9 11 5 6 1002.8 1002.7 0.2
28/03:00am 26.4 32.9 25.7 96 0.5 ENE 2 9 1 5 1003.2 1003.1 0.2
28/02:30am 26.6 33.2 25.2 92 1.0 CALM 0 0 0 0 1003.5 1003.4 0.2
28/02:00am 26.6 32.2 25.4 93 0.8 N 6 9 3 5 1003.8 1003.7 0.2
28/01:30am 26.6 33.6 25.9 96 0.5 CALM 0 0 0 0 1004.0 1003.9 0.2
28/01:00am 26.3 33.0 25.4 95 0.6 CALM 0 0 0 0 1004.1 1004.0 0.2
28/12:30am 26.3 32.6 25.3 94 0.7 SE 2 6 1 3 1004.7 1004.6 0.2
28/12:00am 26.5 33.0 25.1 92 1.0 CALM 0 4 0 2 1005.1 1005.0 0.2
 
Date/Time
CST
Temp
°C
App
Temp
°C
Dew
Point
Rel
Hum
%
Delta-T
°C
Wind Press
QNH
hPa
Press
MSL
hPa
Rain
since 9 am
mm
Dir
 
Spd
km/h
Gust
km/h
Spd
kts
Gust
kts
27/11:30pm 26.6 32.9 25.4 93 0.8 ESE 2 6 1 3 1005.2 1005.1 0.2
27/11:00pm 26.3 31.9 24.9 92 1.0 ESE 4 6 2 3 1005.4 1005.3 0.2
27/10:30pm 26.3 31.9 24.9 92 1.0 SE 4 6 2 3 1005.4 1005.3 0.2
27/10:00pm 26.5 33.0 25.1 92 1.0 CALM 0 0 0 0 1005.2 1005.1 0.2
27/09:30pm 26.6 33.1 25.0 91 1.1 CALM 0 0 0 0 1004.6 1004.5 0.2
27/09:00pm 26.9 32.7 24.5 87 1.7 E 2 6 1 3 1004.7 1004.6 0.2
27/08:30pm 27.2 33.5 24.8 87 1.7 CALM 0 0 0 0 1004.4 1004.3 0.2
27/08:00pm 27.9 33.9 24.3 81 2.5 CALM 0 0 0 0 1004.3 1004.2 0.2
27/07:30pm 28.5 33.5 23.9 76 3.2 SE 4 7 2 4 1003.7 1003.6 0.2
27/07:00pm 29.3 34.1 24.2 74 3.5 ESE 6 11 3 6 1003.3 1003.2 0.2
27/06:30pm 30.4 35.2 24.5 70 4.1 SE 7 11 4 6 1002.9 1002.8 0.2
27/06:00pm 30.9 35.3 23.8 66 4.9 SSE 7 11 4 6 1002.6 1002.5 0.2
27/05:30pm 31.0 35.2 24.1 66 4.8 SSE 9 17 5 9 1002.6 1002.5 0.2
27/05:00pm 31.2 36.2 24.8 69 4.5 SW 7 13 4 7 1002.6 1002.5 0.2
27/04:30pm 30.3 35.0 24.9 73 3.8 SW 9 15 5 8 1002.6 1002.5 0.2
27/04:00pm 29.7 33.6 24.3 73 3.8 SW 11 20 6 11 1002.7 1002.6 0.2
27/03:30pm 30.5 35.6 25.6 75 3.5 SW 9 17 5 9 1003.0 1002.9 0.2
27/03:00pm 30.5 34.9 25.6 75 3.5 W 13 19 7 10 1003.2 1003.1 0.2
27/02:30pm 29.6 32.7 24.2 73 3.8 W 15 24 8 13 1003.5 1003.4 0.2

Other Formats:

Comma delimited format used in spreadsheet applications
http://www.bom.gov.au/fwo/IDD60801/IDD60801.94153.axf

JavaScript Object Notation format (JSON) in row-major order
http://www.bom.gov.au/fwo/IDD60801/IDD60801.94153.json